createdAt,value
2017-12-08T00:00:58.878Z,1.80
2017-12-08T00:03:29.922Z,2.40
2017-12-08T00:06:00.907Z,2.10
2017-12-08T00:08:32.291Z,2.30
2017-12-08T00:11:04.194Z,1.90
2017-12-08T00:13:35.847Z,2.40
2017-12-08T00:16:07.253Z,2.57
2017-12-08T00:18:38.623Z,2.03
2017-12-08T00:21:10.467Z,2.28
2017-12-08T00:23:41.850Z,2.20
2017-12-08T00:26:14.087Z,1.70
2017-12-08T00:28:47.038Z,2.27
2017-12-08T00:31:18.391Z,1.90
2017-12-08T00:33:50.059Z,2.20
2017-12-08T00:36:21.192Z,1.80
2017-12-08T00:38:52.634Z,2.10
2017-12-08T00:41:23.594Z,1.70
2017-12-08T00:43:55.890Z,2.00
2017-12-08T00:46:27.846Z,2.22
2017-12-08T00:48:59.313Z,2.00
2017-12-08T00:51:30.539Z,2.10
2017-12-08T00:54:02.317Z,2.10
2017-12-08T00:56:34.261Z,1.90
2017-12-08T00:59:05.554Z,2.10
2017-12-08T01:02:57.751Z,2.20
2017-12-08T01:05:29.990Z,2.00
2017-12-08T01:08:03.315Z,2.30
2017-12-08T01:10:35.700Z,2.00
2017-12-08T01:13:07.543Z,2.00
2017-12-08T01:15:39.298Z,1.70
2017-12-08T01:18:10.844Z,1.77
2017-12-08T01:20:42.630Z,1.90
2017-12-08T01:23:13.607Z,2.08
2017-12-08T01:25:44.573Z,1.90
2017-12-08T01:28:17.297Z,2.20
2017-12-08T01:30:49.038Z,1.90
2017-12-08T01:33:20.647Z,1.60
2017-12-08T01:35:53.357Z,1.62
2017-12-08T01:38:25.101Z,1.70
2017-12-08T01:40:56.776Z,1.70
2017-12-08T01:43:28.857Z,1.70
2017-12-08T01:46:01.294Z,2.00
2017-12-08T01:48:33.780Z,1.83
2017-12-08T01:51:05.875Z,1.80
2017-12-08T01:53:37.692Z,1.93
2017-12-08T01:56:09.791Z,1.83
2017-12-08T01:58:42.154Z,1.60
2017-12-08T02:01:14.359Z,1.98
2017-12-08T02:03:46.593Z,1.80
2017-12-08T02:06:19.020Z,1.80
2017-12-08T02:08:51.203Z,1.60
2017-12-08T02:11:24.749Z,1.77
2017-12-08T02:13:56.806Z,1.60
2017-12-08T02:16:29.096Z,2.00
2017-12-08T02:19:00.694Z,1.80
2017-12-08T02:21:33.552Z,1.90
2017-12-08T02:24:05.871Z,1.67
2017-12-08T02:26:37.810Z,1.80
2017-12-08T02:29:09.870Z,1.90
2017-12-08T02:31:41.156Z,2.05
2017-12-08T02:34:14.914Z,1.73
2017-12-08T02:36:47.356Z,1.70
2017-12-08T02:39:19.840Z,1.42
2017-12-08T02:41:51.874Z,2.08
2017-12-08T02:44:23.461Z,1.50
2017-12-08T02:46:56.408Z,1.90
2017-12-08T02:49:28.124Z,1.85
2017-12-08T02:51:59.748Z,1.70
2017-12-08T02:54:31.821Z,1.30
2017-12-08T02:57:04.156Z,1.50
2017-12-08T02:59:35.716Z,1.87
2017-12-08T03:02:07.873Z,1.48
2017-12-08T03:04:39.786Z,1.55
2017-12-08T03:07:11.601Z,1.60
2017-12-08T03:09:44.296Z,1.60
2017-12-08T03:12:16.249Z,1.80
2017-12-08T03:14:47.852Z,1.83
2017-12-08T03:17:19.354Z,1.40
2017-12-08T03:19:52.272Z,1.60
2017-12-08T03:22:23.923Z,1.55
2017-12-08T03:24:55.566Z,1.90
2017-12-08T03:27:28.487Z,1.60
2017-12-08T03:30:00.893Z,1.70
2017-12-08T03:32:33.611Z,1.70
2017-12-08T03:35:05.846Z,1.60
2017-12-08T03:37:37.650Z,1.90
2017-12-08T03:40:09.008Z,1.58
2017-12-08T03:42:40.903Z,1.70
2017-12-08T03:45:13.488Z,1.70
2017-12-08T03:47:46.065Z,1.50
2017-12-08T03:50:18.416Z,1.60
2017-12-08T03:52:51.787Z,1.62
2017-12-08T03:55:23.383Z,1.65
2017-12-08T03:58:43.196Z,1.60
2017-12-08T04:01:14.743Z,1.40
2017-12-08T04:03:47.199Z,1.33
2017-12-08T04:06:20.495Z,1.77
2017-12-08T04:08:52.136Z,1.87
2017-12-08T04:11:24.541Z,1.70
2017-12-08T04:13:56.699Z,1.50
2017-12-08T04:16:28.265Z,2.22
2017-12-08T04:18:59.802Z,3.57
2017-12-08T04:21:31.762Z,2.20
2017-12-08T04:24:03.548Z,3.50
2017-12-08T04:26:35.267Z,1.98
2017-12-08T04:29:07.087Z,2.30
2017-12-08T04:31:39.900Z,2.10
2017-12-08T04:34:11.726Z,2.05
2017-12-08T04:36:45.871Z,1.80
2017-12-08T04:39:22.243Z,2.40
2017-12-08T04:41:55.155Z,1.70
2017-12-08T04:44:26.879Z,2.00
2017-12-08T04:46:58.365Z,2.08
2017-12-08T04:49:29.466Z,1.65
2017-12-08T04:52:04.157Z,1.60
2017-12-08T04:54:35.482Z,1.50
2017-12-08T04:57:06.559Z,1.90
2017-12-08T04:59:37.652Z,1.70
2017-12-08T05:02:08.719Z,1.80
2017-12-08T05:04:40.743Z,1.60
2017-12-08T05:07:11.764Z,1.90
2017-12-08T05:09:51.554Z,2.45
2017-12-08T05:12:28.160Z,3.83
2017-12-08T05:15:00.623Z,2.58
2017-12-08T05:17:31.609Z,2.67
2017-12-08T05:20:03.866Z,2.70
2017-12-08T05:22:35.774Z,3.60
2017-12-08T05:25:06.872Z,3.70
2017-12-08T05:27:38.883Z,2.50
2017-12-08T05:30:10.081Z,2.85
2017-12-08T05:32:41.114Z,1.80
2017-12-08T05:35:12.367Z,2.20
2017-12-08T05:37:44.176Z,2.12
2017-12-08T05:40:15.499Z,1.67
2017-12-08T05:42:46.560Z,2.00
2017-12-08T05:45:17.560Z,2.65
2017-12-08T05:47:49.635Z,2.83
2017-12-08T05:50:21.484Z,2.10
2017-12-08T05:52:52.444Z,2.10
2017-12-08T05:55:24.248Z,2.62
2017-12-08T05:57:56.323Z,3.10
2017-12-08T06:00:28.886Z,2.90
2017-12-08T06:03:00.014Z,2.15
2017-12-08T06:05:31.343Z,2.45
2017-12-08T06:08:02.359Z,2.30
2017-12-08T06:10:33.646Z,2.25
2017-12-08T06:13:29.918Z,3.20
2017-12-08T06:16:03.335Z,2.90
2017-12-08T06:18:35.949Z,2.92
2017-12-08T06:21:06.972Z,3.10
2017-12-08T06:23:41.453Z,2.10
2017-12-08T06:26:14.903Z,3.00
2017-12-08T06:28:46.119Z,3.47
2017-12-08T06:32:08.843Z,2.92
2017-12-08T06:34:45.086Z,2.30
2017-12-08T06:37:16.872Z,2.20
2017-12-08T06:39:48.102Z,2.28
2017-12-08T06:42:19.151Z,2.20
2017-12-08T06:44:50.602Z,2.00
2017-12-08T06:47:21.618Z,2.60
2017-12-08T06:49:56.608Z,2.28
2017-12-08T06:55:21.653Z,2.40
2017-12-08T06:57:54.292Z,3.10
2017-12-08T07:00:30.542Z,3.20
2017-12-08T07:03:04.362Z,2.40
2017-12-08T07:05:36.335Z,2.60
2017-12-08T07:08:08.819Z,2.60
2017-12-08T07:10:42.133Z,2.30
2017-12-08T07:13:17.779Z,1.80
2017-12-08T07:15:51.780Z,2.30
2017-12-08T07:18:23.992Z,3.40
2017-12-08T07:20:55.902Z,3.22
2017-12-08T07:23:27.186Z,3.37
2017-12-08T07:25:58.779Z,4.03
2017-12-08T07:28:30.936Z,3.00
2017-12-08T07:31:02.240Z,3.87
2017-12-08T07:33:34.219Z,3.40
2017-12-08T07:36:08.215Z,4.07
2017-12-08T07:39:54.169Z,3.22
2017-12-08T07:42:27.078Z,2.50
2017-12-08T07:44:58.519Z,3.40
2017-12-08T07:47:36.736Z,2.70
2017-12-08T07:50:11.819Z,2.33
2017-12-08T07:52:46.241Z,3.12
2017-12-08T07:55:20.247Z,3.53
2017-12-08T07:57:51.631Z,3.20
2017-12-08T08:00:28.171Z,3.47
2017-12-08T08:03:10.081Z,3.23
2017-12-08T08:05:43.652Z,3.47
2017-12-08T08:08:16.583Z,4.47
2017-12-08T08:10:49.955Z,4.20
2017-12-08T08:13:22.002Z,4.05
2017-12-08T08:15:54.768Z,5.20
2017-12-08T08:18:26.091Z,4.75
2017-12-08T08:20:57.175Z,4.10
2017-12-08T08:23:28.260Z,4.00
2017-12-08T08:25:59.733Z,2.70
2017-12-08T08:28:31.210Z,2.90
2017-12-08T08:31:02.983Z,2.42
2017-12-08T08:33:34.679Z,3.00
2017-12-08T08:36:07.938Z,3.20
2017-12-08T08:38:39.704Z,3.80
2017-12-08T08:41:11.389Z,4.10
2017-12-08T08:43:43.142Z,4.70
2017-12-08T08:46:15.231Z,3.70
2017-12-08T08:48:46.998Z,3.45
2017-12-08T08:51:18.291Z,4.45
2017-12-08T08:54:00.690Z,4.60
2017-12-08T08:56:38.088Z,5.65
2017-12-08T08:59:10.189Z,4.97
2017-12-08T09:01:42.599Z,3.85
2017-12-08T09:04:13.927Z,4.18
2017-12-08T09:06:46.538Z,4.68
2017-12-08T09:09:17.703Z,4.10
2017-12-08T09:11:50.571Z,4.00
2017-12-08T09:14:21.959Z,4.25
2017-12-08T09:16:54.176Z,4.20
2017-12-08T09:19:29.856Z,4.75
2017-12-08T09:22:17.877Z,3.87
2017-12-08T09:24:51.228Z,4.00
2017-12-08T09:27:26.384Z,4.70
2017-12-08T09:30:02.895Z,3.17
2017-12-08T09:32:36.442Z,3.10
2017-12-08T09:35:08.540Z,3.83
2017-12-08T09:37:43.287Z,4.10
2017-12-08T09:40:24.800Z,4.20
2017-12-08T09:42:57.530Z,4.20
2017-12-08T09:45:28.610Z,2.97
2017-12-08T09:48:04.720Z,3.10
2017-12-08T09:50:41.720Z,3.97
2017-12-08T09:53:19.397Z,3.80
2017-12-08T09:55:50.821Z,3.85
2017-12-08T09:58:23.411Z,3.80
2017-12-08T10:00:56.395Z,3.90
2017-12-08T10:03:28.384Z,3.83
2017-12-08T10:06:00.768Z,4.87
2017-12-08T10:08:33.238Z,4.30
2017-12-08T10:11:05.493Z,4.40
2017-12-08T10:13:39.587Z,5.00
2017-12-08T10:16:12.619Z,4.32
2017-12-08T10:18:43.636Z,3.90
2017-12-08T10:21:15.575Z,4.40
2017-12-08T10:23:53.827Z,4.60
2017-12-08T10:26:38.396Z,3.87
2017-12-08T10:29:13.099Z,4.87
2017-12-08T10:31:47.044Z,3.92
2017-12-08T10:34:19.522Z,4.90
2017-12-08T10:36:58.489Z,4.20
2017-12-08T10:39:31.987Z,4.75
2017-12-08T10:42:42.650Z,5.07
2017-12-08T10:45:15.123Z,4.80
2017-12-08T10:47:46.613Z,4.50
2017-12-08T10:50:17.828Z,4.80
2017-12-08T10:52:49.387Z,4.68
2017-12-08T10:55:25.323Z,3.92
2017-12-08T10:58:02.508Z,4.97
2017-12-08T11:00:47.338Z,5.25
2017-12-08T11:03:22.628Z,4.90
2017-12-08T11:05:59.351Z,4.90
2017-12-08T11:08:43.441Z,4.72
2017-12-08T11:11:18.418Z,6.05
2017-12-08T11:13:54.903Z,4.22
2017-12-08T11:16:26.351Z,4.80
2017-12-08T11:18:58.487Z,5.22
2017-12-08T11:21:40.641Z,4.95
2017-12-08T11:24:20.823Z,4.45
2017-12-08T11:27:07.629Z,5.10
2017-12-08T11:29:40.670Z,4.95
2017-12-08T11:32:13.726Z,5.60
2017-12-08T11:34:53.101Z,4.90
2017-12-08T11:37:27.280Z,4.97
2017-12-08T11:39:58.356Z,5.60
2017-12-08T11:42:30.476Z,4.78
2017-12-08T11:45:05.572Z,5.30
2017-12-08T11:47:37.808Z,4.95
2017-12-08T11:50:09.741Z,4.20
2017-12-08T11:52:48.575Z,4.20
2017-12-08T11:55:27.295Z,4.90
2017-12-08T11:57:59.260Z,4.57
2017-12-08T12:00:30.830Z,4.25
2017-12-08T12:03:02.985Z,4.30
2017-12-08T12:05:38.833Z,4.45
2017-12-08T12:08:11.658Z,5.05
2017-12-08T12:10:54.207Z,4.53
2017-12-08T12:13:44.126Z,4.97
2017-12-08T12:16:16.864Z,5.75
2017-12-08T12:18:48.902Z,5.00
2017-12-08T12:21:20.186Z,6.10
2017-12-08T12:23:52.232Z,6.00
2017-12-08T12:26:23.214Z,5.93
2017-12-08T12:28:54.179Z,6.03
2017-12-08T12:31:25.351Z,6.03
2017-12-08T12:33:56.394Z,5.30
2017-12-08T12:36:28.522Z,5.40
2017-12-08T12:38:59.911Z,6.10
2017-12-08T12:41:30.928Z,5.40
2017-12-08T12:44:02.041Z,5.30
2017-12-08T12:46:33.684Z,5.40
2017-12-08T12:49:05.571Z,5.00
2017-12-08T12:51:36.723Z,5.60
2017-12-08T12:54:08.086Z,5.30
2017-12-08T12:56:39.203Z,6.75
2017-12-08T12:59:10.082Z,6.45
2017-12-08T13:01:42.123Z,6.82
2017-12-08T13:04:13.117Z,7.30
2017-12-08T13:06:44.101Z,6.43
2017-12-08T13:09:15.436Z,7.65
2017-12-08T13:11:46.405Z,9.70
2017-12-08T13:14:17.473Z,12.27
2017-12-08T13:16:49.244Z,13.55
2017-12-08T13:19:20.160Z,9.55
2017-12-08T13:21:52.306Z,9.80
2017-12-08T13:24:23.580Z,6.12
2017-12-08T13:26:55.366Z,6.15
2017-12-08T13:29:26.423Z,6.65
2017-12-08T13:31:57.774Z,20.20
2017-12-08T13:34:29.732Z,11.32
2017-12-08T13:37:01.189Z,9.70
2017-12-08T13:39:32.476Z,9.00
2017-12-08T13:42:03.514Z,8.43
2017-12-08T13:44:35.528Z,8.47
2017-12-08T13:47:06.465Z,8.82
2017-12-08T13:49:37.692Z,9.80
2017-12-08T13:52:08.998Z,10.50
2017-12-08T13:56:54.791Z,8.10
2017-12-08T13:59:26.165Z,6.93
2017-12-08T14:01:58.063Z,8.80
2017-12-08T14:04:29.752Z,9.90
2017-12-08T14:07:01.305Z,9.55
2017-12-08T14:09:32.695Z,9.13
2017-12-08T14:12:03.915Z,9.60
2017-12-08T14:14:35.299Z,15.68
2017-12-08T14:17:07.094Z,12.70
2017-12-08T14:19:39.307Z,10.50
2017-12-08T14:22:10.482Z,10.73
2017-12-08T14:24:41.633Z,11.52
2017-12-08T14:27:12.698Z,10.90
2017-12-08T14:29:43.776Z,10.15
2017-12-08T14:32:14.880Z,9.00
2017-12-08T14:34:45.937Z,9.05
2017-12-08T14:37:17.426Z,10.10
2017-12-08T14:39:49.804Z,10.95
2017-12-08T14:42:20.856Z,9.48
2017-12-08T14:44:52.153Z,11.12
2017-12-08T14:47:25.162Z,10.43
2017-12-08T14:49:56.376Z,11.18
2017-12-08T14:52:28.131Z,10.50
2017-12-08T14:54:59.498Z,12.13
2017-12-08T14:57:30.840Z,10.80
2017-12-08T15:00:03.445Z,10.90
2017-12-08T15:02:36.989Z,12.60
2017-12-08T15:05:08.319Z,12.02
2017-12-08T15:07:50.077Z,13.97
2017-12-08T15:10:22.034Z,14.60
2017-12-08T15:12:53.837Z,13.98
2017-12-08T15:15:26.036Z,13.03
2017-12-08T15:17:57.112Z,28.27
2017-12-08T15:20:29.552Z,19.35
2017-12-08T15:23:01.691Z,15.45
2017-12-08T15:25:32.895Z,23.70
2017-12-08T15:28:04.808Z,21.35
2017-12-08T15:30:36.300Z,24.77
2017-12-08T15:33:09.799Z,13.77
2017-12-08T15:35:40.907Z,11.35
2017-12-08T15:38:12.764Z,12.68
2017-12-08T15:40:44.255Z,15.52
2017-12-08T15:43:16.031Z,13.95
2017-12-08T15:45:47.119Z,12.90
2017-12-08T15:48:18.986Z,12.70
2017-12-08T15:50:50.470Z,13.20
2017-12-08T15:53:22.647Z,12.50
2017-12-08T15:55:54.511Z,14.32
2017-12-08T15:58:26.043Z,12.70
2017-12-08T16:00:57.888Z,13.32
2017-12-08T16:03:29.060Z,12.80
2017-12-08T16:06:00.398Z,11.57
2017-12-08T16:08:31.421Z,11.60
2017-12-08T16:11:03.420Z,11.77
2017-12-08T16:13:34.759Z,13.27
2017-12-08T16:16:06.173Z,10.70
2017-12-08T16:18:38.690Z,10.90
2017-12-08T16:21:10.619Z,10.07
2017-12-08T16:23:42.438Z,9.43
2017-12-08T16:26:13.487Z,10.50
2017-12-08T16:28:44.599Z,11.00
2017-12-08T16:31:15.851Z,11.25
2017-12-08T16:33:47.204Z,14.55
2017-12-08T16:36:18.933Z,15.00
2017-12-08T16:38:51.799Z,15.63
2017-12-08T16:41:24.583Z,15.70
2017-12-08T16:43:55.998Z,17.40
2017-12-08T16:46:26.975Z,15.35
2017-12-08T16:48:58.761Z,14.77
2017-12-08T16:51:30.169Z,15.60
2017-12-08T16:54:02.062Z,14.93
2017-12-08T16:56:34.964Z,15.65
2017-12-08T16:59:05.627Z,16.10
2017-12-08T17:01:36.627Z,15.85
2017-12-08T17:04:07.702Z,16.00
2017-12-08T17:06:39.254Z,16.00
2017-12-08T17:09:10.340Z,14.43
2017-12-08T17:11:42.690Z,18.83
2017-12-08T17:14:14.041Z,20.27
2017-12-08T17:16:45.175Z,20.30
2017-12-08T17:19:16.399Z,18.45
2017-12-08T17:21:47.771Z,16.80
2017-12-08T17:24:19.557Z,16.27
2017-12-08T17:26:51.549Z,13.50
2017-12-08T17:29:23.697Z,12.20
2017-12-08T17:31:55.009Z,9.40
2017-12-08T17:34:26.231Z,9.95
2017-12-08T17:36:57.563Z,3.72
2017-12-08T17:39:28.563Z,4.20
2017-12-08T17:42:00.399Z,5.10
2017-12-08T17:44:31.650Z,1.87
2017-12-08T17:47:02.715Z,3.80
2017-12-08T17:49:45.423Z,4.50
2017-12-08T17:52:17.278Z,2.80
2017-12-08T17:54:48.628Z,2.08
2017-12-08T17:57:19.723Z,2.87
2017-12-08T17:59:50.703Z,2.92
2017-12-08T18:02:22.452Z,2.60
2017-12-08T18:04:53.982Z,2.65
2017-12-08T18:07:25.080Z,2.72
2017-12-08T18:09:57.138Z,8.47
2017-12-08T18:12:29.043Z,6.20
2017-12-08T18:15:00.307Z,5.60
2017-12-08T18:17:31.533Z,6.20
2017-12-08T18:20:04.022Z,7.72
2017-12-08T18:22:35.330Z,7.97
2017-12-08T18:25:06.419Z,6.20
2017-12-08T18:27:39.382Z,6.20
2017-12-08T18:30:10.512Z,4.93
2017-12-08T18:32:41.823Z,4.72
2017-12-08T18:35:13.100Z,3.35
2017-12-08T18:37:44.158Z,5.63
2017-12-08T18:40:15.468Z,5.30
2017-12-08T18:42:46.440Z,4.35
2017-12-08T18:45:17.651Z,3.90
2017-12-08T18:47:49.451Z,3.20
2017-12-08T18:50:20.528Z,2.67
2017-12-08T18:52:51.834Z,2.97
2017-12-08T18:55:22.832Z,3.15
2017-12-08T18:57:53.989Z,2.50
2017-12-08T19:00:25.497Z,2.80
2017-12-08T19:02:56.719Z,2.80
2017-12-08T19:05:27.854Z,3.50
2017-12-08T19:07:58.839Z,3.83
2017-12-08T19:10:30.613Z,7.90
2017-12-08T19:13:01.839Z,6.10
2017-12-08T19:15:33.896Z,4.68
2017-12-08T19:18:04.975Z,4.40
2017-12-08T19:20:36.706Z,5.72
2017-12-08T19:23:08.053Z,6.57
2017-12-08T19:25:39.139Z,6.37
2017-12-08T19:28:10.469Z,6.20
2017-12-08T19:30:41.726Z,16.40
2017-12-08T19:33:12.764Z,15.00
2017-12-08T19:35:45.627Z,9.02
2017-12-08T19:38:17.966Z,8.30
2017-12-08T19:40:49.367Z,6.97
2017-12-08T19:43:20.547Z,4.20
2017-12-08T19:45:51.962Z,3.90
2017-12-08T19:48:23.154Z,6.10
2017-12-08T19:50:55.309Z,2.90
2017-12-08T19:53:26.320Z,4.10
2017-12-08T19:55:57.602Z,8.73
2017-12-08T19:58:29.840Z,8.23
2017-12-08T20:01:01.186Z,9.02
2017-12-08T20:03:32.975Z,2.97
2017-12-08T20:06:06.352Z,2.70
2017-12-08T20:08:40.315Z,2.47
2017-12-08T20:11:12.239Z,4.40
2017-12-08T20:13:44.156Z,2.55
2017-12-08T20:16:15.823Z,2.20
2017-12-08T20:18:47.267Z,3.75
2017-12-08T20:21:21.354Z,7.07
2017-12-08T20:23:56.295Z,3.33
2017-12-08T20:26:28.193Z,2.30
2017-12-08T20:29:02.196Z,5.62
2017-12-08T20:31:34.996Z,11.10
2017-12-08T20:34:07.001Z,7.90
2017-12-08T20:36:39.683Z,5.00
2017-12-08T20:39:12.466Z,4.90
2017-12-08T20:41:44.327Z,15.30
2017-12-08T20:44:15.456Z,7.53
2017-12-08T20:46:47.146Z,7.35
2017-12-08T20:49:18.999Z,7.37
2017-12-08T20:51:51.174Z,7.30
2017-12-08T20:54:23.908Z,7.30
2017-12-08T20:56:56.338Z,8.37
2017-12-08T20:59:30.585Z,6.80
2017-12-08T21:02:03.073Z,7.60
2017-12-08T21:04:34.377Z,6.53
2017-12-08T21:07:07.597Z,5.50
2017-12-08T21:09:38.776Z,6.07
2017-12-08T21:12:12.049Z,9.27
2017-12-08T21:14:43.365Z,8.80
2017-12-08T21:17:15.649Z,6.68
2017-12-08T21:19:47.709Z,6.07
2017-12-08T21:22:19.219Z,6.70
2017-12-08T21:24:50.686Z,5.60
2017-12-08T21:27:21.767Z,5.30
2017-12-08T21:29:54.127Z,5.22
2017-12-08T21:32:26.835Z,5.15
2017-12-08T21:34:57.997Z,5.53
2017-12-08T21:37:29.054Z,6.00
2017-12-08T21:40:01.577Z,6.40
2017-12-08T21:42:32.653Z,6.50
2017-12-08T21:45:03.971Z,5.90
2017-12-08T21:47:35.208Z,6.28
2017-12-08T21:50:07.084Z,7.10
2017-12-08T21:52:39.080Z,7.20
2017-12-08T21:55:13.262Z,4.82
2017-12-08T21:57:45.255Z,4.83
2017-12-08T22:00:16.704Z,4.50
2017-12-08T22:02:47.821Z,4.40
2017-12-08T22:05:18.938Z,4.20
2017-12-08T22:07:50.040Z,5.10
2017-12-08T22:10:22.337Z,5.05
2017-12-08T22:12:53.336Z,5.20
2017-12-08T22:15:24.720Z,4.22
2017-12-08T22:17:56.353Z,3.85
2017-12-08T22:20:27.916Z,4.50
2017-12-08T22:22:59.463Z,5.25
2017-12-08T22:25:32.100Z,5.93
2017-12-08T22:28:03.529Z,6.20
2017-12-08T22:30:34.624Z,5.37
2017-12-08T22:33:05.922Z,4.73
2017-12-08T22:35:37.545Z,3.92
2017-12-08T22:38:08.903Z,3.63
2017-12-08T22:40:40.996Z,2.10
2017-12-08T22:43:12.788Z,2.93
2017-12-08T22:45:44.412Z,2.30
2017-12-08T22:48:15.551Z,3.03
2017-12-08T22:50:47.300Z,2.78
2017-12-08T22:53:18.591Z,2.53
2017-12-08T22:55:49.525Z,3.20
2017-12-08T22:58:20.538Z,4.50
2017-12-08T23:00:51.813Z,3.50
2017-12-08T23:03:22.824Z,6.70
2017-12-08T23:05:53.822Z,6.55
2017-12-08T23:08:24.857Z,6.18
2017-12-08T23:10:55.894Z,4.70
2017-12-08T23:13:26.894Z,4.78
2017-12-08T23:15:59.247Z,4.97
2017-12-08T23:18:30.406Z,4.78
2017-12-08T23:21:01.673Z,4.30
2017-12-08T23:23:33.097Z,4.47
2017-12-08T23:26:04.893Z,4.90
2017-12-08T23:28:36.843Z,4.78
2017-12-08T23:31:08.083Z,4.78
2017-12-08T23:33:39.415Z,5.05
2017-12-08T23:36:11.018Z,4.97
2017-12-08T23:38:42.703Z,4.70
2017-12-08T23:41:13.701Z,4.80
2017-12-08T23:43:44.620Z,3.20
2017-12-08T23:46:16.011Z,2.87
2017-12-08T23:48:48.295Z,4.10
2017-12-08T23:51:21.167Z,3.95
2017-12-08T23:53:52.577Z,3.80
2017-12-08T23:56:24.166Z,3.90
2017-12-08T23:58:55.205Z,3.90
